createdAt,value
2017-11-30T04:30:14.052Z,16.98
2017-11-30T04:32:41.641Z,15.75
2017-11-30T04:35:09.248Z,16.27
2017-11-30T04:37:37.136Z,15.07
2017-11-30T04:40:05.310Z,13.50
2017-11-30T04:42:32.899Z,13.90
2017-11-30T04:45:00.536Z,14.85
2017-11-30T04:47:28.123Z,14.38
2017-11-30T04:49:55.706Z,13.80
2017-11-30T04:52:23.323Z,13.38
2017-11-30T04:54:50.903Z,13.43
2017-11-30T04:57:18.487Z,14.50
2017-11-30T04:59:46.124Z,14.23
2017-11-30T05:02:14.483Z,13.75
2017-11-30T05:04:42.071Z,14.57
2017-11-30T05:07:10.448Z,14.27
2017-11-30T05:09:38.799Z,13.98
2017-11-30T05:12:06.395Z,14.27
2017-11-30T05:14:34.027Z,14.77
2017-11-30T05:17:02.387Z,13.65
2017-11-30T05:19:29.980Z,13.77
2017-11-30T05:21:58.362Z,14.90
2017-11-30T05:24:25.948Z,13.40
2017-11-30T05:26:53.543Z,16.00
2017-11-30T05:29:21.178Z,15.13
2017-11-30T05:31:48.769Z,15.10
2017-11-30T05:34:16.360Z,14.80
2017-11-30T05:36:43.995Z,15.15
2017-11-30T05:39:11.586Z,14.10
2017-11-30T05:41:39.169Z,15.10
2017-11-30T05:44:06.804Z,14.18
2017-11-30T05:46:34.391Z,13.85
2017-11-30T05:49:02.020Z,12.45
2017-11-30T05:51:29.611Z,14.68
2017-11-30T05:53:57.196Z,14.63
2017-11-30T05:56:24.923Z,15.30
2017-11-30T05:58:52.511Z,14.30
2017-11-30T06:01:20.099Z,13.90
2017-11-30T06:03:48.482Z,13.65
2017-11-30T06:06:16.839Z,13.35
2017-11-30T06:08:44.423Z,13.18
2017-11-30T06:11:12.901Z,12.80
2017-11-30T06:13:41.255Z,13.77
2017-11-30T06:16:08.845Z,13.60
2017-11-30T06:18:36.472Z,13.05
2017-11-30T06:21:04.060Z,13.88
2017-11-30T06:23:31.643Z,13.73
2017-11-30T06:25:59.275Z,12.95
2017-11-30T06:28:27.628Z,13.95
2017-11-30T06:30:55.211Z,11.75
2017-11-30T06:33:23.585Z,12.50
2017-11-30T06:35:51.184Z,13.85
2017-11-30T06:38:18.766Z,13.73
2017-11-30T06:40:46.371Z,13.93
2017-11-30T06:43:13.956Z,14.15
2017-11-30T06:45:41.564Z,14.57
2017-11-30T06:48:09.931Z,16.15
2017-11-30T06:50:37.519Z,15.65
2017-11-30T06:53:05.131Z,16.67
2017-11-30T06:55:32.715Z,16.87
2017-11-30T06:58:01.075Z,15.05
2017-11-30T07:00:28.687Z,13.20
2017-11-30T07:02:56.275Z,12.50
2017-11-30T07:05:23.859Z,12.77
2017-11-30T07:07:51.492Z,13.85
2017-11-30T07:10:19.149Z,13.82
2017-11-30T07:12:46.732Z,14.25
2017-11-30T07:15:14.358Z,14.40
2017-11-30T07:17:41.943Z,14.75
2017-11-30T07:20:09.524Z,17.62
2017-11-30T07:22:37.134Z,15.48
2017-11-30T07:25:04.720Z,16.42
2017-11-30T07:27:32.308Z,18.25
2017-11-30T07:29:59.952Z,16.17
2017-11-30T07:32:27.539Z,15.52
2017-11-30T07:34:55.935Z,15.15
2017-11-30T07:37:23.523Z,18.02
2017-11-30T07:39:51.111Z,18.17
2017-11-30T07:42:18.734Z,20.10
2017-11-30T07:44:46.315Z,19.77
2017-11-30T07:47:14.116Z,20.65
2017-11-30T07:49:42.498Z,15.80
2017-11-30T07:52:10.083Z,14.50
2017-11-30T07:54:37.723Z,15.60
2017-11-30T07:57:05.310Z,14.30
2017-11-30T07:59:32.891Z,15.20
2017-11-30T08:02:00.518Z,14.05
2017-11-30T08:04:28.099Z,15.65
2017-11-30T08:06:55.683Z,15.57
2017-11-30T08:09:23.314Z,13.52
2017-11-30T08:11:50.900Z,14.68
2017-11-30T08:14:18.488Z,13.50
2017-11-30T08:16:46.101Z,14.70
2017-11-30T08:19:13.683Z,15.88
2017-11-30T08:21:41.283Z,14.93
2017-11-30T08:24:08.905Z,14.30
2017-11-30T08:26:37.255Z,14.27
2017-11-30T08:29:04.863Z,13.25
2017-11-30T08:31:32.448Z,13.02
2017-11-30T08:34:00.055Z,13.27
2017-11-30T08:36:27.642Z,11.80
2017-11-30T08:38:55.262Z,11.75
2017-11-30T08:41:22.854Z,12.73
2017-11-30T08:43:51.199Z,12.50
2017-11-30T08:46:18.839Z,13.43
2017-11-30T08:48:46.423Z,12.32
2017-11-30T08:51:14.004Z,13.15
2017-11-30T08:53:42.404Z,12.82
2017-11-30T08:56:09.987Z,13.05
2017-11-30T08:58:37.572Z,14.13
2017-11-30T09:01:05.211Z,13.27
2017-11-30T09:03:33.562Z,16.00
2017-11-30T09:06:01.143Z,17.60
2017-11-30T09:08:28.757Z,15.80
2017-11-30T09:10:56.355Z,12.55
2017-11-30T09:13:24.015Z,12.82
2017-11-30T09:15:51.599Z,12.27
2017-11-30T09:18:19.948Z,12.55
2017-11-30T09:20:47.555Z,13.55
2017-11-30T09:23:15.948Z,12.70
2017-11-30T09:25:44.292Z,13.38
2017-11-30T09:28:11.911Z,13.23
2017-11-30T09:30:39.491Z,13.00
2017-11-30T09:33:07.071Z,12.55
2017-11-30T09:35:34.711Z,14.13
2017-11-30T09:38:02.294Z,14.32
2017-11-30T09:40:29.876Z,13.85
2017-11-30T09:42:58.277Z,12.15
2017-11-30T09:45:25.864Z,13.32
2017-11-30T09:47:53.453Z,12.63
2017-11-30T09:50:21.081Z,12.73
2017-11-30T09:52:48.688Z,13.05
2017-11-30T09:55:17.035Z,11.65
2017-11-30T09:57:46.151Z,12.57
2017-11-30T10:00:14.503Z,11.73
2017-11-30T10:02:42.087Z,12.20
2017-11-30T10:05:10.495Z,11.60
2017-11-30T10:07:38.087Z,11.82
2017-11-30T10:10:05.670Z,11.63
2017-11-30T10:12:33.293Z,11.75
2017-11-30T10:15:00.875Z,10.77
2017-11-30T10:17:29.967Z,10.68
2017-11-30T10:19:57.600Z,9.73
2017-11-30T10:22:25.187Z,10.45
2017-11-30T10:24:54.276Z,11.55
2017-11-30T10:27:21.887Z,10.77
2017-11-30T10:29:49.472Z,10.15
2017-11-30T10:32:17.104Z,10.13
2017-11-30T10:34:44.683Z,9.52
2017-11-30T10:37:12.262Z,8.80
2017-11-30T10:39:39.899Z,9.20
2017-11-30T10:42:07.483Z,9.48
2017-11-30T10:44:35.059Z,8.00
2017-11-30T10:47:02.847Z,9.25
2017-11-30T10:49:31.190Z,8.48
2017-11-30T10:51:58.767Z,7.75
2017-11-30T10:54:27.165Z,7.85
2017-11-30T10:56:55.515Z,7.70
2017-11-30T10:59:23.099Z,7.03
2017-11-30T11:01:50.714Z,6.60
2017-11-30T11:04:18.291Z,7.18
2017-11-30T11:06:45.920Z,7.18
2017-11-30T11:09:13.501Z,6.43
2017-11-30T11:11:41.847Z,6.90
2017-11-30T11:14:09.453Z,7.22
2017-11-30T11:16:37.035Z,8.90
2017-11-30T11:19:05.427Z,7.53
2017-11-30T11:21:33.008Z,6.70
2017-11-30T11:24:00.595Z,7.18
2017-11-30T11:26:28.200Z,7.62
2017-11-30T11:28:55.784Z,6.40
2017-11-30T11:31:23.367Z,7.25
2017-11-30T11:33:50.979Z,8.00
2017-11-30T11:36:18.563Z,8.25
2017-11-30T11:38:46.224Z,8.48
2017-11-30T11:41:13.839Z,8.10
2017-11-30T11:43:42.182Z,7.30
2017-11-30T11:46:09.763Z,6.80
2017-11-30T11:48:38.147Z,7.37
2017-11-30T11:51:06.502Z,7.60
2017-11-30T11:53:34.084Z,8.20
2017-11-30T11:56:02.484Z,8.35
2017-11-30T11:58:30.071Z,6.32
2017-11-30T12:00:57.659Z,6.90
2017-11-30T12:03:25.266Z,6.80
2017-11-30T12:05:52.847Z,7.05
2017-11-30T12:08:20.567Z,6.53
2017-11-30T12:10:48.155Z,7.32
2017-11-30T12:13:15.730Z,5.80
2017-11-30T12:15:43.346Z,6.75
2017-11-30T12:18:10.929Z,5.78
2017-11-30T12:20:38.520Z,5.95
2017-11-30T12:23:06.171Z,6.62
2017-11-30T12:25:33.752Z,5.90
2017-11-30T12:28:01.331Z,6.57
2017-11-30T12:30:29.727Z,6.25
2017-11-30T12:32:57.306Z,6.80
2017-11-30T12:35:24.887Z,6.07
2017-11-30T12:37:52.519Z,7.20
2017-11-30T12:40:20.096Z,5.30
2017-11-30T12:42:47.675Z,5.62
2017-11-30T12:45:15.304Z,6.65
2017-11-30T12:47:42.878Z,6.25
2017-11-30T12:50:10.454Z,5.40
2017-11-30T12:52:38.055Z,5.97
2017-11-30T12:55:05.649Z,5.85
2017-11-30T12:57:33.225Z,7.15
2017-11-30T13:00:00.828Z,5.78
2017-11-30T13:02:28.410Z,6.70
2017-11-30T13:04:56.009Z,7.43
2017-11-30T13:07:23.581Z,7.78
2017-11-30T13:09:51.922Z,7.20
2017-11-30T13:12:20.287Z,7.47
2017-11-30T13:14:47.873Z,7.65
2017-11-30T13:17:15.593Z,7.65
2017-11-30T13:19:43.165Z,8.32
2017-11-30T13:22:10.736Z,9.32
2017-11-30T13:24:38.366Z,9.85
2017-11-30T13:27:05.937Z,9.93
2017-11-30T13:29:33.513Z,9.77
2017-11-30T13:32:01.237Z,10.32
2017-11-30T13:34:28.814Z,9.85
2017-11-30T13:36:56.402Z,12.45
2017-11-30T13:39:24.025Z,11.32
2017-11-30T13:41:51.606Z,11.30
2017-11-30T13:44:19.190Z,11.18
2017-11-30T13:46:46.809Z,11.48
2017-11-30T13:49:14.385Z,12.65
2017-11-30T13:51:41.974Z,11.73
2017-11-30T13:54:09.598Z,12.32
2017-11-30T13:56:37.178Z,14.02
2017-11-30T13:59:04.758Z,13.40
2017-11-30T14:01:32.393Z,12.40
2017-11-30T14:03:59.974Z,13.38
2017-11-30T14:06:27.559Z,14.40
2017-11-30T14:08:55.185Z,12.15
2017-11-30T14:11:22.766Z,12.23
2017-11-30T14:13:51.105Z,14.43
2017-11-30T14:16:18.735Z,12.88
2017-11-30T14:18:46.315Z,12.88
2017-11-30T14:21:13.893Z,12.40
2017-11-30T14:23:41.509Z,12.82
2017-11-30T14:26:09.098Z,12.93
2017-11-30T14:28:36.682Z,12.93
2017-11-30T14:31:05.061Z,12.85
2017-11-30T14:33:33.406Z,12.10
2017-11-30T14:36:00.988Z,12.80
2017-11-30T14:38:28.633Z,13.02
2017-11-30T14:40:56.214Z,13.13
2017-11-30T14:43:23.798Z,13.57
2017-11-30T14:45:51.422Z,13.27
2017-11-30T14:48:19.010Z,13.35
2017-11-30T14:50:47.349Z,12.43
2017-11-30T14:53:14.969Z,13.15
2017-11-30T14:55:42.545Z,12.80
2017-11-30T14:58:10.894Z,12.43
2017-11-30T15:00:38.505Z,13.00
2017-11-30T15:03:06.082Z,14.07
2017-11-30T15:05:34.430Z,15.57
2017-11-30T15:08:02.058Z,15.43
2017-11-30T15:10:29.638Z,16.75
2017-11-30T15:12:57.217Z,12.82
2017-11-30T15:15:24.823Z,13.75
2017-11-30T15:17:52.406Z,14.98
2017-11-30T15:20:20.990Z,13.68
2017-11-30T15:22:48.573Z,13.40
2017-11-30T15:25:16.155Z,14.68
2017-11-30T15:27:44.659Z,15.15
2017-11-30T15:30:12.236Z,15.40
2017-11-30T15:32:39.826Z,14.27
2017-11-30T15:35:07.430Z,15.57
2017-11-30T15:37:35.014Z,16.45
2017-11-30T15:40:02.593Z,16.60
2017-11-30T15:42:30.977Z,15.40
2017-11-30T15:44:58.557Z,14.40
2017-11-30T15:47:26.142Z,13.80
2017-11-30T15:49:53.757Z,13.60
2017-11-30T15:52:21.337Z,15.18
2017-11-30T15:54:48.917Z,14.48
2017-11-30T15:57:16.552Z,15.57
2017-11-30T15:59:44.133Z,13.98
2017-11-30T16:02:12.549Z,14.77
2017-11-30T16:04:40.181Z,15.15
2017-11-30T16:07:07.758Z,14.45
2017-11-30T16:09:35.635Z,14.18
2017-11-30T16:12:03.676Z,15.77
2017-11-30T16:14:31.265Z,13.05
2017-11-30T16:16:58.855Z,12.23
2017-11-30T16:19:26.469Z,12.82
2017-11-30T16:21:54.050Z,11.85
2017-11-30T16:24:21.629Z,13.30
2017-11-30T16:26:49.250Z,14.15
2017-11-30T16:29:16.827Z,14.52
2017-11-30T16:31:44.417Z,15.18
2017-11-30T16:34:12.041Z,14.43
2017-11-30T16:36:39.621Z,12.50
2017-11-30T16:39:07.201Z,13.25
2017-11-30T16:41:35.597Z,13.70
2017-11-30T16:44:03.179Z,14.40
2017-11-30T16:46:30.766Z,14.55
2017-11-30T16:48:58.368Z,16.65
2017-11-30T16:51:25.946Z,14.02
2017-11-30T16:53:53.549Z,13.30
2017-11-30T16:56:23.033Z,14.93
2017-11-30T16:58:50.617Z,14.68
2017-11-30T17:01:18.241Z,15.15
2017-11-30T17:03:45.821Z,16.90
2017-11-30T17:06:13.402Z,18.00
2017-11-30T17:08:41.005Z,15.52
2017-11-30T17:11:08.578Z,16.10
2017-11-30T17:13:36.190Z,15.13
2017-11-30T17:16:04.538Z,14.55
2017-11-30T17:18:32.114Z,17.15
2017-11-30T17:20:59.717Z,15.90
2017-11-30T17:23:27.293Z,15.18
2017-11-30T17:25:54.882Z,15.77
2017-11-30T17:28:22.513Z,14.82
2017-11-30T17:30:50.089Z,13.23
2017-11-30T17:33:17.674Z,15.73
2017-11-30T17:35:46.037Z,13.25
2017-11-30T17:38:13.630Z,13.15
2017-11-30T17:40:41.365Z,14.15
2017-11-30T17:43:09.135Z,12.30
2017-11-30T17:45:37.485Z,14.43
2017-11-30T17:48:05.105Z,11.93
2017-11-30T17:50:32.723Z,12.23
2017-11-30T17:53:00.294Z,13.82
2017-11-30T17:55:28.661Z,13.18
2017-11-30T17:57:56.242Z,16.05
2017-11-30T18:00:23.817Z,16.45
2017-11-30T18:02:51.422Z,20.37
2017-11-30T18:05:19.002Z,22.17
2017-11-30T18:07:47.378Z,20.92
2017-11-30T18:10:15.728Z,19.50
2017-11-30T18:12:43.302Z,20.77
2017-11-30T18:15:10.905Z,21.30
2017-11-30T18:17:38.494Z,23.83
2017-11-30T18:20:06.942Z,26.25
2017-11-30T18:22:34.562Z,28.05
2017-11-30T18:25:02.141Z,29.58
2017-11-30T18:27:30.849Z,29.75
2017-11-30T18:30:00.697Z,31.37
2017-11-30T18:32:28.398Z,32.80
2017-11-30T18:34:56.792Z,30.80
2017-11-30T18:37:24.374Z,32.15
2017-11-30T18:39:51.959Z,33.35
2017-11-30T18:42:19.570Z,32.58
2017-11-30T18:44:48.922Z,32.03
2017-11-30T18:47:16.788Z,31.12
2017-11-30T18:49:44.404Z,33.30
2017-11-30T18:52:11.989Z,35.15
2017-11-30T18:54:39.578Z,32.92
2017-11-30T18:57:07.182Z,36.72
2017-11-30T18:59:34.765Z,30.73
2017-11-30T19:02:02.496Z,30.23
2017-11-30T19:04:30.078Z,30.35
2017-11-30T19:06:57.664Z,28.27
2017-11-30T19:09:25.297Z,28.08
2017-11-30T19:11:52.878Z,27.00
2017-11-30T19:14:20.923Z,27.87
2017-11-30T19:16:48.562Z,26.95
2017-11-30T19:19:16.169Z,29.50
2017-11-30T19:21:43.745Z,29.95
2017-11-30T19:24:12.386Z,28.00
2017-11-30T19:26:39.970Z,27.75
2017-11-30T19:29:07.553Z,30.23
2017-11-30T19:31:35.948Z,33.42
2017-11-30T19:34:03.534Z,24.90
2017-11-30T19:36:31.118Z,22.37
2017-11-30T19:38:58.721Z,21.52
2017-11-30T19:41:26.365Z,21.37
2017-11-30T19:43:54.754Z,22.25
2017-11-30T19:46:23.097Z,27.60
2017-11-30T19:48:50.686Z,30.33
2017-11-30T19:51:19.174Z,29.83
2017-11-30T19:53:46.764Z,31.67
2017-11-30T19:56:14.346Z,32.30
2017-11-30T19:58:41.969Z,32.42
2017-11-30T20:01:10.202Z,30.23
2017-11-30T20:03:38.599Z,29.40
2017-11-30T20:06:06.974Z,32.42
2017-11-30T20:08:36.622Z,28.30
2017-11-30T20:11:05.421Z,29.90
2017-11-30T20:13:33.045Z,27.70
2017-11-30T20:16:00.625Z,23.85
2017-11-30T20:18:28.898Z,24.95
2017-11-30T20:20:56.522Z,28.25
2017-11-30T20:23:24.101Z,24.87
2017-11-30T20:25:51.790Z,24.92
2017-11-30T20:28:19.542Z,26.48
2017-11-30T20:30:47.122Z,27.92
2017-11-30T20:33:14.704Z,25.73
2017-11-30T20:35:42.322Z,26.17
2017-11-30T20:38:09.974Z,24.85
2017-11-30T20:40:37.553Z,23.30
2017-11-30T20:43:05.182Z,22.30
2017-11-30T20:45:32.767Z,24.02
2017-11-30T20:48:00.380Z,22.77
2017-11-30T20:50:27.982Z,22.23
2017-11-30T20:52:55.686Z,22.42
2017-11-30T20:55:24.977Z,22.37
2017-11-30T20:57:53.397Z,26.77
2017-11-30T21:00:20.993Z,25.58
2017-11-30T21:02:48.610Z,25.05
2017-11-30T21:05:16.193Z,22.87
2017-11-30T21:07:43.779Z,22.10
2017-11-30T21:10:11.413Z,19.12
2017-11-30T21:12:38.994Z,20.67
2017-11-30T21:15:06.575Z,19.40
2017-11-30T21:17:34.954Z,23.27
2017-11-30T21:20:03.293Z,24.08
2017-11-30T21:22:30.875Z,19.83
2017-11-30T21:24:58.490Z,20.40
2017-11-30T21:27:26.074Z,17.20
2017-11-30T21:29:53.658Z,17.10
2017-11-30T21:32:21.292Z,16.02
2017-11-30T21:34:48.873Z,13.43
2017-11-30T21:37:16.450Z,14.30
2017-11-30T21:39:44.930Z,13.38
2017-11-30T21:42:13.283Z,12.77
2017-11-30T21:44:40.866Z,12.80
2017-11-30T21:47:08.473Z,14.05
2017-11-30T21:49:36.062Z,11.85
2017-11-30T21:52:03.645Z,11.95
2017-11-30T21:54:32.048Z,11.20
2017-11-30T21:56:59.625Z,12.23
2017-11-30T21:59:27.206Z,11.57
2017-11-30T22:01:54.805Z,11.90
2017-11-30T22:04:22.385Z,10.70
2017-11-30T22:06:50.006Z,11.15
2017-11-30T22:09:18.353Z,11.02
2017-11-30T22:11:45.938Z,11.90
2017-11-30T22:14:14.333Z,10.82
2017-11-30T22:16:42.677Z,11.15
2017-11-30T22:19:10.260Z,11.00
2017-11-30T22:21:38.629Z,11.25
2017-11-30T22:24:06.993Z,10.85
2017-11-30T22:26:34.577Z,11.75
2017-11-30T22:29:03.066Z,11.75
2017-11-30T22:31:30.662Z,10.70
2017-11-30T22:33:58.241Z,10.88
2017-11-30T22:36:25.863Z,12.73
2017-11-30T22:38:53.442Z,12.52
2017-11-30T22:41:21.030Z,12.93
2017-11-30T22:43:48.647Z,11.80
2017-11-30T22:46:16.225Z,13.07
2017-11-30T22:48:43.869Z,14.25
2017-11-30T22:51:11.514Z,13.50
2017-11-30T22:53:39.090Z,13.88
2017-11-30T22:56:06.673Z,13.15
2017-11-30T22:58:34.295Z,12.18
2017-11-30T23:01:01.880Z,11.65
2017-11-30T23:03:29.461Z,11.77
2017-11-30T23:05:57.082Z,12.35
2017-11-30T23:08:24.661Z,12.32
2017-11-30T23:10:52.238Z,11.73
2017-11-30T23:13:19.873Z,11.93
2017-11-30T23:15:47.447Z,10.80
2017-11-30T23:18:15.030Z,11.85
2017-11-30T23:20:43.425Z,10.38
2017-11-30T23:23:11.001Z,12.10
2017-11-30T23:25:38.648Z,12.35
2017-11-30T23:28:07.102Z,11.70
